Time;durP1;ratioP1;P1;durP2;ratioP2;P2;SDS_P1;SDS_P2;PMS_P1;PMS_P2;Temp;Humidity;BMP_temperature;BMP_pressure;BME280_temperature;BME280_humidity;BME280_pressure;Samples;Min_cycle;Max_cycle;Signal;HPM_P1;HPM_P2
2021/11/06 00:00:26;;;;;;;11.75;7.93;;;12.70;94.80;;;;;;5014768;28;20121;-80
2021/11/06 00:02:52;;;;;;;13.27;8.77;;;12.70;94.80;;;;;;5015291;28;20378;-79
2021/11/06 00:05:18;;;;;;;11.45;8.57;;;12.70;94.80;;;;;;5014824;28;20026;-79
2021/11/06 00:07:44;;;;;;;10.20;7.72;;;12.60;94.70;;;;;;5015140;28;20554;-80
2021/11/06 00:10:12;;;;;;;11.60;8.88;;;12.60;94.60;;;;;;5014989;28;20021;-80
2021/11/06 00:12:38;;;;;;;;;;;12.60;94.60;;;;;;5015376;28;20122;-77
2021/11/06 00:15:05;;;;;;;11.02;7.88;;;12.60;94.70;;;;;;5015134;28;19906;-79
2021/11/06 00:17:31;;;;;;;;;;;12.60;94.50;;;;;;5015421;28;20102;-78
2021/11/06 00:19:57;;;;;;;10.73;8.70;;;12.60;94.70;;;;;;5014874;28;20024;-79
2021/11/06 00:22:23;;;;;;;11.50;7.80;;;12.50;94.60;;;;;;5014911;28;20517;-79
2021/11/06 00:24:49;;;;;;;13.38;9.23;;;12.50;94.50;;;;;;5014894;28;20483;-79
2021/11/06 00:27:15;;;;;;;10.68;8.38;;;12.50;94.40;;;;;;5013424;28;20029;-80
2021/11/06 00:29:41;;;;;;;10.02;8.10;;;12.50;94.40;;;;;;4997156;28;20022;-80
2021/11/06 00:32:07;;;;;;;9.40;8.18;;;12.50;94.50;;;;;;5014834;28;20022;-79
2021/11/06 00:34:33;;;;;;;10.63;8.43;;;12.50;94.60;;;;;;5014526;28;20044;-80
2021/11/06 00:36:59;;;;;;;12.07;8.90;;;12.50;94.60;;;;;;5014592;28;20026;-80
2021/11/06 00:39:25;;;;;;;11.98;9.52;;;12.60;94.60;;;;;;5014507;28;20026;-81
2021/11/06 00:41:51;;;;;;;9.35;7.75;;;12.60;94.70;;;;;;4999278;28;20026;-79
2021/11/06 00:44:17;;;;;;;12.38;8.98;;;12.60;94.80;;;;;;5015790;28;20022;-79
2021/11/06 00:46:42;;;;;;;11.52;7.97;;;12.60;94.90;;;;;;5017363;28;20076;-80
2021/11/06 00:49:08;;;;;;;11.25;8.93;;;12.50;94.90;;;;;;5004308;28;20018;-80
2021/11/06 00:51:34;;;;;;;13.15;8.70;;;12.50;94.90;;;;;;5016556;28;20072;-80
2021/11/06 00:54:00;;;;;;;11.15;8.70;;;12.50;94.90;;;;;;5014636;28;20032;-80
2021/11/06 00:56:26;;;;;;;12.13;8.98;;;12.50;94.90;;;;;;5014312;28;20046;-80
2021/11/06 00:58:52;;;;;;;13.38;9.10;;;12.40;94.90;;;;;;5014512;28;20634;-79
2021/11/06 01:01:17;;;;;;;14.90;9.68;;;12.40;94.90;;;;;;5014257;28;20072;-81
2021/11/06 01:03:43;;;;;;;10.98;9.13;;;12.40;95.00;;;;;;5014083;28;20077;-80
2021/11/06 01:06:09;;;;;;;11.32;8.38;;;12.40;95.10;;;;;;5014397;28;20029;-79
2021/11/06 01:08:35;;;;;;;15.60;10.35;;;12.40;95.10;;;;;;5014193;28;20029;-80
2021/11/06 01:11:02;;;;;;;11.65;9.57;;;12.40;95.20;;;;;;5014969;28;20034;-80
2021/11/06 01:13:27;;;;;;;13.68;8.80;;;12.40;95.30;;;;;;5014015;28;20037;-79
2021/11/06 01:15:53;;;;;;;10.23;7.85;;;12.40;95.40;;;;;;5012502;28;20026;-80
2021/11/06 01:18:19;;;;;;;13.57;9.13;;;12.40;95.50;;;;;;5013833;28;20029;-80
2021/11/06 01:20:45;;;;;;;12.98;9.52;;;12.40;95.50;;;;;;5013630;28;20380;-79
2021/11/06 01:23:12;;;;;;;15.93;10.32;;;12.40;95.60;;;;;;5013681;28;20018;-81
2021/11/06 01:25:38;;;;;;;13.73;10.40;;;12.30;95.50;;;;;;5013633;28;20443;-80
2021/11/06 01:28:04;;;;;;;13.60;9.98;;;12.30;95.50;;;;;;5012236;28;20021;-80
2021/11/06 01:30:30;;;;;;;11.98;9.43;;;12.30;95.60;;;;;;5014160;28;20018;-79
2021/11/06 01:32:56;;;;;;;12.38;9.20;;;12.20;95.60;;;;;;5013925;28;20379;-80
2021/11/06 01:35:22;;;;;;;11.48;9.23;;;12.10;95.60;;;;;;5013930;28;20101;-79
2021/11/06 01:37:48;;;;;;;13.93;10.00;;;12.10;95.60;;;;;;5016981;28;20431;-79
2021/11/06 01:40:18;;;;;;;13.02;9.70;;;12.10;95.70;;;;;;5014145;28;20114;-79
2021/11/06 01:42:44;;;;;;;13.13;9.55;;;12.10;95.90;;;;;;5013409;28;20049;-80
2021/11/06 01:45:14;;;;;;;13.10;10.23;;;12.10;95.50;;;;;;5013167;28;20026;-80
2021/11/06 01:47:40;;;;;;;10.98;9.05;;;12.10;95.50;;;;;;5013218;28;20014;-80
2021/11/06 01:50:06;;;;;;;12.77;9.57;;;12.10;95.30;;;;;;5013238;28;20510;-81
2021/11/06 01:52:32;;;;;;;16.10;10.25;;;12.20;95.10;;;;;;5012345;28;20029;-80
2021/11/06 01:54:58;;;;;;;16.85;10.00;;;12.30;94.90;;;;;;5013209;28;20030;-80
2021/11/06 01:57:26;;;;;;;12.85;8.93;;;12.30;94.80;;;;;;5013097;28;20109;-82
2021/11/06 01:59:52;;;;;;;;;;;12.30;94.60;;;;;;5001036;28;20030;-81
2021/11/06 02:02:18;;;;;;;13.30;9.05;;;12.20;94.60;;;;;;5013597;28;20301;-80
2021/11/06 02:04:45;;;;;;;15.60;9.85;;;12.10;94.00;;;;;;5013236;28;20029;-79
2021/11/06 02:07:11;;;;;;;14.73;10.05;;;12.10;93.90;;;;;;5013913;28;20029;-80
2021/11/06 02:09:37;;;;;;;14.48;10.57;;;12.00;94.30;;;;;;5013240;28;20085;-81
2021/11/06 02:12:04;;;;;;;14.00;9.95;;;11.90;94.00;;;;;;5011755;28;20061;-81
2021/11/06 02:14:30;;;;;;;16.77;10.47;;;11.80;94.10;;;;;;5013066;28;20018;-82
2021/11/06 02:16:56;;;;;;;12.70;10.15;;;11.70;94.10;;;;;;5012966;28;20037;-80
2021/11/06 02:19:27;;;;;;;17.13;11.38;;;11.70;94.20;;;;;;5013095;28;20408;-80
2021/11/06 02:21:55;;;;;;;16.80;10.68;;;11.60;94.30;;;;;;5011777;28;20104;-80
2021/11/06 02:24:21;;;;;;;;;;;11.60;94.40;;;;;;5013349;28;20014;-81
2021/11/06 02:26:47;;;;;;;16.85;10.82;;;11.60;94.40;;;;;;4995285;28;20012;-80
2021/11/06 02:29:13;;;;;;;14.35;10.77;;;11.60;94.50;;;;;;5012781;28;20037;-80
2021/11/06 02:31:40;;;;;;;12.63;10.07;;;11.60;94.60;;;;;;5013619;28;20109;-81
2021/11/06 02:34:07;;;;;;;16.48;10.60;;;11.60;94.40;;;;;;5015286;28;20100;-79
2021/11/06 02:36:34;;;;;;;13.40;9.70;;;11.70;94.30;;;;;;5013280;28;20069;-81
2021/11/06 02:39:00;;;;;;;13.20;9.60;;;11.60;93.60;;;;;;5012716;28;20038;-81
2021/11/06 02:41:26;;;;;;;12.43;8.57;;;11.60;92.90;;;;;;5013202;28;20450;-81
2021/11/06 02:43:52;;;;;;;12.55;8.02;;;11.50;92.50;;;;;;5017142;28;20068;-81
2021/11/06 02:46:18;;;;;;;9.18;7.18;;;11.50;91.80;;;;;;5013154;28;20022;-78
2021/11/06 02:48:44;;;;;;;9.63;5.38;;;11.40;91.30;;;;;;5018741;28;20022;-81
2021/11/06 02:51:12;;;;;;;6.45;5.75;;;11.20;90.70;;;;;;5017758;28;20117;-80
2021/11/06 02:53:38;;;;;;;6.43;5.05;;;11.10;90.20;;;;;;5012667;28;20379;-81
2021/11/06 02:56:04;;;;;;;8.77;5.50;;;10.90;88.70;;;;;;5013382;28;20026;-80
2021/11/06 02:58:30;;;;;;;4.85;4.18;;;10.70;89.10;;;;;;5015248;28;20014;-82
2021/11/06 03:00:57;;;;;;;4.85;4.07;;;10.50;87.50;;;;;;5013958;28;20041;-80
2021/11/06 03:03:23;;;;;;;6.00;4.23;;;10.40;87.90;;;;;;5005660;28;20411;-81
2021/11/06 03:05:49;;;;;;;4.47;3.60;;;10.20;88.20;;;;;;5012367;28;20032;-80
2021/11/06 03:08:14;;;;;;;10.20;4.25;;;10.10;88.20;;;;;;5016392;28;20565;-80
2021/11/06 03:10:40;;;;;;;8.52;4.63;;;10.00;88.70;;;;;;5016217;28;20475;-80
2021/11/06 03:13:07;;;;;;;8.25;4.57;;;9.90;89.00;;;;;;5016268;28;20025;-80
2021/11/06 03:15:34;;;;;;;4.75;3.78;;;9.80;89.30;;;;;;5009451;28;20503;-80
2021/11/06 03:18:00;;;;;;;5.70;4.53;;;9.70;89.60;;;;;;5018515;28;20025;-81
2021/11/06 03:20:26;;;;;;;6.60;4.03;;;9.70;89.90;;;;;;5014897;28;20402;-81
2021/11/06 03:22:57;;;;;;;7.28;5.00;;;9.60;90.00;;;;;;5015808;28;20056;-79
2021/11/06 03:25:23;;;;;;;5.70;4.18;;;9.50;90.00;;;;;;5016076;28;20383;-81
2021/11/06 03:27:49;;;;;;;6.45;4.32;;;9.50;90.10;;;;;;5015917;28;20427;-80
2021/11/06 03:30:15;;;;;;;7.35;4.53;;;9.40;90.30;;;;;;5016310;28;20052;-80
2021/11/06 03:32:42;;;;;;;11.77;4.60;;;9.40;90.30;;;;;;5016081;28;20106;-80
2021/11/06 03:35:08;;;;;;;5.45;4.53;;;9.40;90.50;;;;;;5016475;28;20499;-80
2021/11/06 03:37:35;;;;;;;5.75;4.60;;;9.40;90.50;;;;;;5015845;28;20029;-80
2021/11/06 03:40:01;;;;;;;7.78;5.75;;;9.40;90.60;;;;;;5014661;28;20029;-80
2021/11/06 03:42:27;;;;;;;6.30;4.53;;;9.40;90.30;;;;;;4997930;28;20022;-79
2021/11/06 03:44:53;;;;;;;7.28;4.90;;;9.40;89.80;;;;;;5015746;28;20044;-81
2021/11/06 03:47:19;;;;;;;8.00;4.55;;;9.40;89.70;;;;;;5015618;28;20029;-80
2021/11/06 03:49:45;;;;;;;5.63;4.53;;;9.40;89.60;;;;;;5015413;28;20477;-81
2021/11/06 03:52:12;;;;;;;6.25;4.25;;;9.40;89.50;;;;;;5015660;28;20014;-80
2021/11/06 03:54:38;;;;;;;5.75;4.40;;;9.40;89.90;;;;;;5015299;28;20379;-80
2021/11/06 03:57:04;;;;;;;5.60;4.65;;;9.30;90.00;;;;;;5015262;28;20048;-79
2021/11/06 03:59:30;;;;;;;5.00;4.38;;;9.30;90.00;;;;;;5015224;28;20463;-79
2021/11/06 04:01:55;;;;;;;4.20;3.80;;;9.30;90.00;;;;;;5015229;28;20514;-80
2021/11/06 04:04:21;;;;;;;10.13;7.75;;;9.30;90.00;;;;;;5015208;28;20383;-80
2021/11/06 04:06:47;;;;;;;4.78;3.65;;;9.20;90.00;;;;;;5001556;28;20491;-80
2021/11/06 04:09:13;;;;;;;4.97;3.83;;;9.20;89.80;;;;;;5015586;28;20097;-79
2021/11/06 04:11:39;;;;;;;3.65;3.35;;;9.20;89.60;;;;;;5015199;28;20080;-80
2021/11/06 04:14:05;;;;;;;5.32;3.60;;;9.20;88.90;;;;;;4997870;28;20168;-80
2021/11/06 04:16:31;;;;;;;6.22;4.43;;;9.20;88.60;;;;;;5013050;28;20030;-79
2021/11/06 04:18:57;;;;;;;4.63;3.95;;;9.20;88.80;;;;;;5014864;28;20029;-79
2021/11/06 04:21:26;;;;;;;5.45;3.95;;;9.20;88.70;;;;;;5016986;28;20038;-79
2021/11/06 04:23:52;;;;;;;4.50;3.45;;;9.20;88.80;;;;;;5015931;28;20041;-80
2021/11/06 04:26:18;;;;;;;6.10;4.47;;;9.10;88.80;;;;;;5004406;28;20030;-80
2021/11/06 04:28:44;;;;;;;7.07;4.55;;;9.10;89.00;;;;;;5015469;28;20466;-79
2021/11/06 04:31:10;;;;;;;5.13;4.07;;;9.10;89.00;;;;;;5014974;28;20030;-79
2021/11/06 04:33:35;;;;;;;4.07;3.60;;;9.10;89.10;;;;;;5012718;28;20029;-79
2021/11/06 04:36:02;;;;;;;5.13;3.92;;;9.10;88.90;;;;;;5014792;28;20026;-79
2021/11/06 04:38:28;;;;;;;4.53;4.13;;;9.00;88.60;;;;;;5014798;28;20014;-79
2021/11/06 04:40:54;;;;;;;5.53;4.13;;;9.10;88.80;;;;;;5001133;28;20506;-78
2021/11/06 04:43:20;;;;;;;4.95;4.38;;;9.10;88.40;;;;;;5012038;28;20044;-80
2021/11/06 04:45:46;;;;;;;6.22;4.40;;;9.10;88.60;;;;;;5016494;28;20452;-79
2021/11/06 04:48:12;;;;;;;5.22;4.13;;;9.00;88.20;;;;;;5017908;28;20029;-82
2021/11/06 04:50:38;;;;;;;5.55;3.88;;;9.00;88.30;;;;;;5023258;28;20029;-80
2021/11/06 04:53:04;;;;;;;5.05;4.50;;;9.00;88.80;;;;;;5023022;28;20459;-81
2021/11/06 04:55:30;;;;;;;4.43;3.70;;;8.90;88.90;;;;;;5022072;28;20042;-79
2021/11/06 04:57:56;;;;;;;4.85;4.35;;;8.90;89.20;;;;;;5017595;28;20046;-79
2021/11/06 05:00:22;;;;;;;5.50;3.92;;;8.90;89.40;;;;;;5015434;28;20041;-80
2021/11/06 05:02:47;;;;;;;5.25;3.88;;;8.90;89.40;;;;;;5014218;28;20022;-79
2021/11/06 05:05:14;;;;;;;4.68;4.07;;;8.90;89.00;;;;;;5008485;28;20061;-79
2021/11/06 05:07:40;;;;;;;6.80;4.07;;;8.90;89.30;;;;;;5013947;28;20010;-79
2021/11/06 05:10:07;;;;;;;7.40;4.32;;;8.90;89.10;;;;;;5014116;28;20382;-79
2021/11/06 05:12:34;;;;;;;6.45;4.60;;;9.00;89.30;;;;;;5014019;28;20472;-79
2021/11/06 05:15:00;;;;;;;4.55;4.13;;;9.00;89.40;;;;;;5015354;28;20041;-79
2021/11/06 05:17:25;;;;;;;5.85;3.92;;;9.00;89.20;;;;;;5002266;28;20472;-80
2021/11/06 05:19:52;;;;;;;5.13;3.88;;;9.00;89.10;;;;;;5016150;28;20061;-80
2021/11/06 05:22:18;;;;;;;6.57;4.20;;;9.00;89.00;;;;;;5014067;28;20021;-79
2021/11/06 05:24:44;;;;;;;5.25;3.63;;;9.00;88.70;;;;;;4996257;28;20026;-80
2021/11/06 05:27:10;;;;;;;4.60;4.18;;;9.00;88.90;;;;;;5013525;28;20479;-80
2021/11/06 05:29:36;;;;;;;4.93;4.43;;;9.00;88.80;;;;;;5013645;28;20076;-79
2021/11/06 05:32:02;;;;;;;7.68;4.30;;;9.00;89.00;;;;;;5014021;28;20022;-81
2021/11/06 05:34:27;;;;;;;5.95;4.10;;;9.00;89.00;;;;;;5015573;28;20037;-80
2021/11/06 05:36:53;;;;;;;5.57;3.53;;;9.00;88.80;;;;;;4989546;28;20531;-80
2021/11/06 05:39:19;;;;;;;4.28;3.88;;;9.00;88.70;;;;;;5006758;28;20125;-79
2021/11/06 05:41:45;;;;;;;4.22;3.25;;;8.90;89.00;;;;;;5013317;28;20053;-81
2021/11/06 05:44:11;;;;;;;4.38;3.78;;;9.00;89.20;;;;;;5013380;28;20030;-79
2021/11/06 05:46:37;;;;;;;5.18;4.32;;;9.10;89.10;;;;;;5013264;28;20025;-80
2021/11/06 05:49:03;;;;;;;5.30;4.05;;;9.20;89.20;;;;;;5011372;28;20124;-80
2021/11/06 05:51:29;;;;;;;4.68;4.20;;;9.20;88.80;;;;;;5010214;28;20013;-80
2021/11/06 05:53:54;;;;;;;11.40;3.97;;;9.30;88.70;;;;;;5013057;28;20026;-83
2021/11/06 05:56:20;;;;;;;4.38;3.33;;;9.40;88.30;;;;;;5013274;28;20061;-80
2021/11/06 05:58:47;;;;;;;5.43;3.40;;;9.30;88.10;;;;;;5011550;28;20026;-81
2021/11/06 06:01:13;;;;;;;5.20;4.40;;;9.30;88.00;;;;;;5013158;28;20131;-80
2021/11/06 06:03:39;;;;;;;7.07;3.40;;;9.30;88.30;;;;;;5013365;28;20072;-80
2021/11/06 06:06:05;;;;;;;6.68;4.57;;;9.30;88.20;;;;;;5013345;28;20475;-80
2021/11/06 06:08:31;;;;;;;5.32;3.75;;;9.30;88.10;;;;;;4995879;28;20482;-82
2021/11/06 06:10:57;;;;;;;5.05;3.95;;;9.30;88.10;;;;;;5016156;28;20022;-80
2021/11/06 06:13:25;;;;;;;7.13;3.50;;;9.30;88.00;;;;;;5013452;28;20022;-82
2021/11/06 06:15:51;;;;;;;4.78;4.28;;;9.30;87.90;;;;;;4995791;28;20045;-81
2021/11/06 06:18:17;;;;;;;5.28;3.90;;;9.20;87.70;;;;;;5005667;28;20014;-80
2021/11/06 06:20:43;;;;;;;3.97;3.33;;;9.30;88.20;;;;;;5013014;28;20040;-80
2021/11/06 06:23:08;;;;;;;4.43;4.00;;;9.20;88.10;;;;;;5013125;28;20026;-81
2021/11/06 06:25:34;;;;;;;4.28;3.17;;;9.20;88.40;;;;;;5013153;28;20033;-79
2021/11/06 06:28:03;;;;;;;4.57;4.07;;;9.20;88.60;;;;;;5013248;28;20383;-80
2021/11/06 06:30:29;;;;;;;3.35;2.85;;;9.20;88.70;;;;;;5013792;28;20483;-81
2021/11/06 06:32:55;;;;;;;3.85;3.25;;;9.20;88.60;;;;;;5012918;28;20431;-80
2021/11/06 06:35:21;;;;;;;6.68;3.80;;;9.10;88.30;;;;;;5013037;28;20096;-80
2021/11/06 06:37:46;;;;;;;4.60;4.10;;;9.00;88.70;;;;;;5012968;28;20109;-80
2021/11/06 06:40:13;;;;;;;7.30;3.53;;;9.10;89.10;;;;;;4998766;28;20034;-80
2021/11/06 06:42:40;;;;;;;5.95;4.00;;;9.20;89.40;;;;;;5002495;28;20023;-82
2021/11/06 06:45:06;;;;;;;5.87;3.87;;;9.20;88.60;;;;;;5012567;28;20033;-81
2021/11/06 06:47:32;;;;;;;4.53;3.75;;;9.20;88.20;;;;;;4997253;28;20342;-81
2021/11/06 06:49:58;;;;;;;3.22;2.92;;;9.20;88.30;;;;;;4997530;28;20030;-81
2021/11/06 06:52:24;;;;;;;5.18;3.67;;;9.20;88.30;;;;;;4997617;28;20534;-80
2021/11/06 06:54:50;;;;;;;5.35;4.03;;;9.20;88.30;;;;;;4997119;28;20030;-82
2021/11/06 06:57:16;;;;;;;4.55;4.13;;;9.20;88.60;;;;;;4996951;28;20133;-80
2021/11/06 06:59:42;;;;;;;5.43;3.95;;;9.30;88.70;;;;;;4996792;28;20037;-80
2021/11/06 07:02:09;;;;;;;4.80;4.18;;;9.30;88.10;;;;;;5007190;28;20025;-80
2021/11/06 07:04:35;;;;;;;4.65;3.72;;;9.30;88.50;;;;;;4999593;28;20368;-81
2021/11/06 07:07:01;;;;;;;6.55;4.00;;;9.30;88.40;;;;;;5016764;28;20033;-81
2021/11/06 07:09:27;;;;;;;9.10;3.65;;;9.30;88.20;;;;;;5016794;28;20022;-82
2021/11/06 07:11:53;;;;;;;6.22;3.90;;;9.20;88.10;;;;;;4998881;28;20516;-81
2021/11/06 07:14:21;;;;;;;6.78;4.18;;;9.20;88.40;;;;;;5019237;28;20104;-79
2021/11/06 07:16:48;;;;;;;4.50;3.88;;;9.20;88.40;;;;;;5019877;28;20022;-82
2021/11/06 07:19:15;;;;;;;4.75;3.72;;;9.20;88.40;;;;;;5003538;28;20034;-81
2021/11/06 07:21:41;;;;;;;5.97;3.92;;;9.10;89.10;;;;;;5018871;28;20495;-80
2021/11/06 07:24:07;;;;;;;7.13;3.75;;;9.10;89.10;;;;;;5017362;28;20022;-80
2021/11/06 07:26:34;;;;;;;7.30;3.72;;;9.20;89.70;;;;;;5017196;28;20030;-80
2021/11/06 07:29:00;;;;;;;8.17;4.50;;;9.30;89.00;;;;;;4998574;28;20029;-80
2021/11/06 07:31:26;;;;;;;4.80;3.13;;;9.40;88.70;;;;;;5016475;28;20022;-81
2021/11/06 07:33:54;;;;;;;4.68;3.63;;;9.40;88.30;;;;;;5016644;28;20418;-82
2021/11/06 07:36:21;;;;;;;7.18;4.30;;;9.40;88.30;;;;;;5017286;28;20090;-80
2021/11/06 07:38:47;;;;;;;3.45;2.65;;;9.40;88.60;;;;;;5016553;28;20490;-82
2021/11/06 07:41:14;;;;;;;9.38;3.65;;;9.40;88.00;;;;;;5014536;28;20061;-82
2021/11/06 07:43:41;;;;;;;7.13;4.05;;;9.40;88.20;;;;;;5028019;28;20044;-81
2021/11/06 07:46:08;;;;;;;4.00;3.60;;;9.50;88.50;;;;;;5035682;28;20025;-80
2021/11/06 07:48:34;;;;;;;6.05;3.50;;;9.60;88.10;;;;;;5035618;28;20079;-81
2021/11/06 07:51:01;;;;;;;7.88;5.25;;;9.50;87.70;;;;;;5036191;28;20103;-81
2021/11/06 07:53:29;;;;;;;5.85;3.95;;;9.60;87.90;;;;;;5034311;28;20037;-81
2021/11/06 07:55:55;;;;;;;10.10;3.97;;;9.60;88.10;;;;;;5021114;28;20552;-81
2021/11/06 07:58:22;;;;;;;5.32;3.63;;;9.60;88.10;;;;;;5017665;28;20022;-81
2021/11/06 08:00:48;;;;;;;5.97;3.88;;;9.70;87.80;;;;;;5012863;28;20152;-79
2021/11/06 08:03:15;;;;;;;6.95;3.25;;;9.70;87.60;;;;;;5001000;28;20018;-80
2021/11/06 08:05:42;;;;;;;6.15;3.97;;;9.60;87.20;;;;;;5010841;28;20034;-79
2021/11/06 08:08:08;;;;;;;4.20;3.65;;;9.60;87.30;;;;;;5008884;28;20419;-80
2021/11/06 08:10:33;;;;;;;6.75;3.13;;;9.60;87.50;;;;;;4995954;28;20025;-80
2021/11/06 08:13:01;;;;;;;5.90;3.67;;;9.70;87.40;;;;;;5015189;28;20026;-80
2021/11/06 08:15:31;;;;;;;3.15;2.85;;;9.80;87.40;;;;;;5015461;28;20125;-79
2021/11/06 08:18:00;;;;;;;5.57;3.45;;;9.90;86.70;;;;;;5015483;28;20108;-80
2021/11/06 08:20:26;;;;;;;8.40;2.92;;;9.70;86.80;;;;;;5014150;28;20030;-80
2021/11/06 08:23:01;;;;;;;5.53;3.25;;;9.70;87.00;;;;;;5002731;28;20113;-77
2021/11/06 08:25:27;;;;;;;6.40;3.60;;;9.60;87.30;;;;;;5014334;28;20514;-81
2021/11/06 08:27:54;;;;;;;6.05;3.65;;;9.50;87.20;;;;;;5015275;28;20038;-79
2021/11/06 08:30:22;;;;;;;3.22;2.85;;;9.50;87.80;;;;;;5015080;28;20494;-79
2021/11/06 08:32:50;;;;;;;6.07;3.97;;;9.40;87.80;;;;;;5014772;28;20435;-80
2021/11/06 08:35:17;;;;;;;4.30;3.42;;;9.50;88.10;;;;;;5014019;28;20045;-79
2021/11/06 08:37:43;;;;;;;5.38;3.40;;;9.50;88.20;;;;;;5009843;28;20034;-80
2021/11/06 08:40:11;;;;;;;5.78;3.80;;;9.50;88.10;;;;;;5017882;28;20045;-80
2021/11/06 08:42:38;;;;;;;5.00;3.22;;;9.50;88.20;;;;;;5014091;28;20031;-80
2021/11/06 08:45:06;;;;;;;4.57;3.80;;;9.70;88.10;;;;;;5014646;28;20026;-80
2021/11/06 08:47:32;;;;;;;8.18;3.42;;;9.70;87.70;;;;;;5014416;28;20072;-80
2021/11/06 08:49:58;;;;;;;5.28;3.55;;;9.70;87.40;;;;;;5003911;28;20022;-82
2021/11/06 08:52:24;;;;;;;7.07;3.63;;;9.80;87.60;;;;;;5012408;28;20057;-82
2021/11/06 08:54:50;;;;;;;5.63;3.70;;;9.90;87.50;;;;;;4996871;28;20025;-84
2021/11/06 08:57:20;;;;;;;5.28;4.07;;;10.00;87.00;;;;;;5014252;28;20042;-83
2021/11/06 08:59:49;;;;;;;4.97;3.80;;;10.10;86.40;;;;;;5019575;28;20175;-84
2021/11/06 09:02:17;;;;;;;5.45;3.15;;;10.00;85.90;;;;;;5016820;28;20104;-81
2021/11/06 09:04:44;;;;;;;4.38;3.35;;;9.90;86.30;;;;;;5014347;28;20529;-81
2021/11/06 09:07:10;;;;;;;5.63;3.42;;;9.90;86.40;;;;;;5013215;28;20491;-79
2021/11/06 09:09:37;;;;;;;5.30;3.28;;;9.90;86.30;;;;;;5013689;28;20047;-81
2021/11/06 09:12:04;;;;;;;4.35;2.70;;;9.90;86.30;;;;;;5013589;28;20036;-81
2021/11/06 09:14:30;;;;;;;6.07;3.65;;;9.90;86.30;;;;;;5013497;28;20014;-81
2021/11/06 09:16:58;;;;;;;8.88;3.55;;;9.90;85.80;;;;;;5014440;28;20026;-88
2021/11/06 09:19:24;;;;;;;3.78;2.70;;;9.90;86.80;;;;;;5013216;28;20053;-80
2021/11/06 09:21:51;;;;;;;7.32;4.25;;;10.00;86.50;;;;;;5013381;28;20045;-80
2021/11/06 09:24:19;;;;;;;5.00;3.00;;;10.30;86.20;;;;;;5014724;28;20017;-80
2021/11/06 09:26:48;;;;;;;4.53;3.30;;;10.50;85.50;;;;;;5014102;28;20330;-82
2021/11/06 09:29:16;;;;;;;4.22;3.28;;;10.50;85.00;;;;;;5014811;28;20025;-80
2021/11/06 09:31:48;;;;;;;;;;;10.50;84.40;;;;;;5017489;28;20053;-81
2021/11/06 09:34:14;;;;;;;5.55;3.53;;;10.60;85.00;;;;;;5013548;28;19981;-80
2021/11/06 09:36:40;;;;;;;5.03;3.25;;;10.60;84.30;;;;;;5012502;28;20053;-80
2021/11/06 09:39:09;;;;;;;7.03;3.80;;;10.60;83.80;;;;;;5013048;28;20018;-81
2021/11/06 09:41:34;;;;;;;7.50;3.88;;;10.50;84.00;;;;;;5013148;28;20084;-79
2021/11/06 09:44:01;;;;;;;7.85;4.28;;;10.50;84.10;;;;;;5012240;28;20439;-79
2021/11/06 09:46:27;;;;;;;8.70;3.33;;;10.50;84.30;;;;;;5012830;28;20112;-79
2021/11/06 09:48:54;;;;;;;6.38;3.42;;;10.50;84.00;;;;;;5013747;28;20026;-80
2021/11/06 09:51:20;;;;;;;4.80;3.30;;;10.40;84.00;;;;;;4997124;28;20487;-79
2021/11/06 09:53:48;;;;;;;7.35;4.00;;;10.40;84.20;;;;;;5013714;28;20026;-79
2021/11/06 09:56:26;;;;;;;6.20;3.30;;;10.70;84.70;;;;;;5012828;28;20042;-82
2021/11/06 09:58:56;;;;;;;4.75;3.33;;;11.40;83.20;;;;;;5013968;28;20038;-81
2021/11/06 10:01:23;;;;;;;5.68;3.53;;;12.10;79.60;;;;;;5014435;28;20049;-79
2021/11/06 10:03:49;;;;;;;7.22;3.47;;;12.20;77.80;;;;;;5013066;28;20033;-79
2021/11/06 10:06:22;;;;;;;6.18;3.10;;;12.10;77.60;;;;;;5013084;28;20483;-80
2021/11/06 10:08:51;;;;;;;5.20;2.90;;;12.20;77.00;;;;;;5012944;28;20040;-81
2021/11/06 10:11:28;;;;;;;4.13;2.78;;;12.30;76.70;;;;;;5013860;28;20474;-79
2021/11/06 10:14:02;;;;;;;4.28;2.80;;;12.30;75.10;;;;;;4996543;28;20081;-82
2021/11/06 10:16:32;;;;;;;5.50;2.78;;;11.80;75.70;;;;;;5018105;28;20040;-84
2021/11/06 10:19:16;;;;;;;4.65;3.60;;;11.80;76.50;;;;;;5019942;28;20026;-83
2021/11/06 10:21:48;;;;;;;4.38;2.58;;;11.80;76.20;;;;;;5016450;28;20528;-81
2021/11/06 10:24:16;;;;;;;11.75;4.28;;;11.60;75.20;;;;;;4996218;28;20026;-82
2021/11/06 10:26:43;;;;;;;2.47;1.70;;;11.50;75.60;;;;;;5014013;28;20037;-82
2021/11/06 10:29:13;;;;;;;6.65;4.38;;;11.30;74.70;;;;;;5015688;28;20022;-83
2021/11/06 10:31:54;;;;;;;3.95;2.65;;;11.20;75.80;;;;;;5013738;28;20033;-82
2021/11/06 10:34:22;;;;;;;5.20;2.42;;;11.20;76.10;;;;;;5013281;28;20022;-85
2021/11/06 10:36:59;;;;;;;4.82;2.38;;;11.20;75.60;;;;;;5003572;28;20026;-82
2021/11/06 10:39:25;;;;;;;5.88;2.97;;;11.20;76.40;;;;;;4999559;28;20092;-83
2021/11/06 10:41:51;;;;;;;3.47;2.53;;;11.10;75.60;;;;;;5019096;28;20038;-84
2021/11/06 10:44:20;;;;;;;4.68;2.58;;;11.10;75.60;;;;;;5035076;28;20430;-84
2021/11/06 10:46:54;;;;;;;3.95;2.30;;;11.10;75.70;;;;;;5033819;28;20045;-83
2021/11/06 10:49:37;;;;;;;3.22;2.28;;;11.20;75.60;;;;;;5033613;28;20059;-83
2021/11/06 10:52:11;;;;;;;3.38;1.80;;;11.20;75.50;;;;;;5033634;28;20026;-82
2021/11/06 10:55:05;;;;;;;4.72;1.85;;;11.20;74.50;;;;;;5031948;28;20017;-79
2021/11/06 10:57:31;;;;;;;3.35;2.05;;;11.10;75.00;;;;;;5014488;28;20046;-82
2021/11/06 11:00:18;;;;;;;3.90;1.80;;;11.00;74.90;;;;;;5013342;28;20121;-82
2021/11/06 11:02:44;;;;;;;4.10;2.25;;;10.80;75.40;;;;;;5015561;28;20092;-82
2021/11/06 11:05:31;;;;;;;4.32;2.25;;;10.70;75.90;;;;;;4996463;28;20435;-83
2021/11/06 11:08:02;;;;;;;4.10;2.10;;;10.80;76.60;;;;;;5016301;28;20022;-82
2021/11/06 11:10:28;;;;;;;3.10;2.15;;;10.80;76.60;;;;;;4997539;28;20026;-81
2021/11/06 11:13:19;;;;;;;3.05;1.90;;;10.80;76.20;;;;;;5017948;28;20113;-83
2021/11/06 11:15:52;;;;;;;4.18;2.35;;;10.80;75.90;;;;;;5015024;28;20025;-84
2021/11/06 11:18:34;;;;;;;3.00;2.10;;;10.70;76.10;;;;;;5012912;28;20018;-79
2021/11/06 11:21:21;;;;;;;3.50;2.25;;;10.70;76.30;;;;;;5012890;28;20038;-81
2021/11/06 11:23:58;;;;;;;4.53;1.80;;;10.50;77.10;;;;;;5016393;28;20040;-83
2021/11/06 11:26:52;;;;;;;3.95;2.20;;;10.50;77.20;;;;;;5024084;28;20025;-84
2021/11/06 11:29:26;;;;;;;4.38;1.85;;;10.50;77.40;;;;;;4997250;28;20030;-81
2021/11/06 11:31:53;;;;;;;2.63;1.83;;;10.50;77.20;;;;;;4998958;28;20038;-81
2021/11/06 11:34:20;;;;;;;2.10;1.83;;;10.50;76.90;;;;;;5014658;28;20033;-83
2021/11/06 11:36:47;;;;;;;4.85;2.30;;;10.50;76.20;;;;;;5016369;28;20060;-80
2021/11/06 11:39:15;;;;;;;2.85;1.50;;;10.40;75.80;;;;;;5001614;28;20052;-84
2021/11/06 11:41:43;;;;;;;3.53;1.95;;;10.30;76.10;;;;;;5015077;28;20029;-79
2021/11/06 11:44:28;;;;;;;4.28;1.77;;;10.20;77.00;;;;;;5002137;28;20023;-82
2021/11/06 11:47:03;;;;;;;5.53;1.83;;;10.10;76.70;;;;;;5015850;28;20375;-82
2021/11/06 11:49:35;;;;;;;2.67;1.90;;;10.00;77.60;;;;;;5016569;28;20029;-84
2021/11/06 11:52:29;;;;;;;9.95;2.15;;;10.10;78.40;;;;;;5016225;28;20034;-83
2021/11/06 11:54:57;;;;;;;2.28;1.92;;;10.10;79.00;;;;;;5015573;28;20041;-83
2021/11/06 11:57:24;;;;;;;3.47;2.25;;;10.00;80.80;;;;;;5016717;28;20046;-85
2021/11/06 11:59:50;;;;;;;4.60;2.03;;;9.80;82.40;;;;;;5016721;28;20044;-83
2021/11/06 12:02:22;;;;;;;3.58;1.75;;;9.60;82.70;;;;;;5016200;28;20030;-83
2021/11/06 12:04:48;;;;;;;5.35;2.47;;;9.40;83.10;;;;;;5014976;28;20033;-80
2021/11/06 12:07:19;;;;;;;3.45;2.00;;;9.30;83.70;;;;;;5015958;28;20029;-81
2021/11/06 12:09:45;;;;;;;5.40;2.35;;;9.30;83.60;;;;;;5015707;28;20026;-80
2021/11/06 12:12:11;;;;;;;4.07;2.33;;;9.30;84.10;;;;;;4998674;28;20420;-81
2021/11/06 12:14:44;;;;;;;4.93;2.38;;;9.40;84.10;;;;;;5017786;28;20028;-80
2021/11/06 12:17:10;;;;;;;3.63;2.13;;;9.40;84.00;;;;;;5020666;28;20045;-80
2021/11/06 12:19:40;;;;;;;5.90;2.72;;;9.30;84.30;;;;;;4998389;28;20036;-80
2021/11/06 12:22:34;;;;;;;4.88;2.35;;;9.30;84.60;;;;;;5014986;28;20026;-83
2021/11/06 12:25:19;;;;;;;3.60;2.28;;;9.30;84.90;;;;;;5012928;28;20525;-84
2021/11/06 12:27:59;;;;;;;7.72;2.97;;;9.20;85.30;;;;;;5015510;28;20041;-83
2021/11/06 12:30:36;;;;;;;5.28;2.92;;;9.20;85.60;;;;;;5008548;28;20038;-83
2021/11/06 12:33:07;;;;;;;4.53;3.08;;;9.20;85.90;;;;;;4997073;28;20030;-84
2021/11/06 12:35:33;;;;;;;4.72;2.95;;;9.20;85.60;;;;;;4996430;28;20022;-83
2021/11/06 12:38:01;;;;;;;2.85;1.85;;;9.30;85.30;;;;;;4998659;28;20033;-84
2021/11/06 12:40:49;;;;;;;6.72;2.70;;;9.40;84.30;;;;;;4999910;28;20030;-83
2021/11/06 12:43:24;;;;;;;3.30;2.15;;;9.40;83.80;;;;;;5018804;28;20026;-85
2021/11/06 12:45:54;;;;;;;8.98;3.10;;;9.40;83.00;;;;;;5015051;28;20064;-84
2021/11/06 12:48:24;;;;;;;2.33;2.13;;;9.40;83.40;;;;;;5015386;28;20022;-81
2021/11/06 12:51:07;;;;;;;5.05;3.15;;;9.50;83.70;;;;;;5005857;28;20380;-84
2021/11/06 12:53:42;;;;;;;7.82;3.38;;;9.50;84.00;;;;;;4996073;28;20106;-84